Time;durP1;ratioP1;P1;durP2;ratioP2;P2;SDS_P1;SDS_P2;PMS_P1;PMS_P2;Temp;Humidity;BMP_temperature;BMP_pressure;BME280_temperature;BME280_humidity;BME280_pressure;Samples;Min_cycle;Max_cycle;Signal;HPM_P1;HPM_P2
2024/02/25 00:02:03;;;;;;;;;;;;;;;;;;2194510;67;2270;-20
2024/02/25 00:04:33;;;;;;;;;;;;;;;;;;2190743;59;2499;-20
2024/02/25 00:07:04;;;;;;;;;;;;;;;;;;2194535;59;2464;-20
2024/02/25 00:09:34;;;;;;;;;;;;;;;;;;2194348;67;1886;-20
2024/02/25 00:12:05;;;;;;;;;;;;;;;;;;2191398;67;2875;-20
2024/02/25 00:14:35;;;;;;;;;;;;;;;;;;2194310;59;2005;-19
2024/02/25 00:17:05;;;;;;;;;;;;;;;;;;2194102;59;1934;-20
2024/02/25 00:19:36;;;;;;;;;;;;;;;;;;2192924;67;2036;-20
2024/02/25 00:22:06;;;;;;;;;;;;;;;;;;2191819;67;2742;-20
2024/02/25 00:24:36;;;;;;;;;;;;;;;;;;2192191;67;1747;-19
2024/02/25 00:27:07;;;;;;;;;;;;;;;;;;2194857;67;2093;-19
2024/02/25 00:29:37;;;;;;;;;;;;;;;;;;2192547;67;2718;-20
2024/02/25 00:32:07;;;;;;;;;;;;;;;;;;2192985;59;2013;-19
2024/02/25 00:34:42;;;;;;;;;;;;;;;;;;2192565;67;1975;-20
2024/02/25 00:37:12;;;;;;;;;;;;;;;;;;2190391;67;1519;-20
2024/02/25 00:39:44;;;;;;;;;;;;;;;;;;2192644;67;2464;-20
2024/02/25 00:42:14;;;;;;;;;;;;;;;;;;2191511;67;1760;-20
2024/02/25 00:44:48;;;;;;;;;;;;;;;;;;2194354;59;2826;-20
2024/02/25 00:47:19;;;;;;;;;;;;;;;;;;2193934;59;2140;-20
2024/02/25 00:49:49;;;;;;;;;;;;;;;;;;2194484;67;3314;-20
2024/02/25 00:52:24;;;;;;;;;;;;;;;;;;2192793;67;2143;-20
2024/02/25 00:54:58;;;;;;;;;;;;;;;;;;2194443;67;2069;-20
2024/02/25 00:57:28;;;;;;;;;;;;;;;;;;2197959;67;2994;-20
2024/02/25 00:59:59;;;;;;;;;;;;;;;;;;2193962;67;1917;-19
2024/02/25 01:02:29;;;;;;;;;;;;;;;;;;2193517;67;1847;-20
2024/02/25 01:05:04;;;;;;;;;;;;;;;;;;2193346;67;2124;-20
2024/02/25 01:07:38;;;;;;;;;;;;;;;;;;2194435;67;1887;-20
2024/02/25 01:10:10;;;;;;;;;;;;;;;;;;2193412;67;1891;-19
2024/02/25 01:12:40;;;;;;;;;;;;;;;;;;2192918;67;2279;-20
2024/02/25 01:15:12;;;;;;;;;;;;;;;;;;2194221;59;2419;-20
2024/02/25 01:17:43;;;;;;;;;;;;;;;;;;2194023;59;2300;-20
2024/02/25 01:20:14;;;;;;;;;;;;;;;;;;2193079;67;2229;-20
2024/02/25 01:22:45;;;;;;;;;;;;;;;;;;2194294;67;1794;-20
2024/02/25 01:25:15;;;;;;;;;;;;;;;;;;2197364;59;1782;-20
2024/02/25 01:27:45;;;;;;;;;;;;;;;;;;2195641;67;1824;-20
2024/02/25 01:30:16;;;;;;;;;;;;;;;;;;2193852;67;1502;-20
2024/02/25 01:32:48;;;;;;;;;;;;;;;;;;2194175;59;1916;-19
2024/02/25 01:35:21;;;;;;;;;;;;;;;;;;2190312;67;1487;-20
2024/02/25 01:37:51;;;;;;;;;;;;;;;;;;2195599;59;1336;-20
2024/02/25 01:40:24;;;;;;;;;;;;;;;;;;2191519;59;1706;-20
2024/02/25 01:43:10;;;;;;;;;;;;;;;;;;2191234;67;1340;-20
2024/02/25 01:45:40;;;;;;;;;;;;;;;;;;2195564;59;1330;-20
2024/02/25 01:48:16;;;;;;;;;;;;;;;;;;2192798;67;1315;-20
2024/02/25 01:50:47;;;;;;;;;;;;;;;;;;2196578;67;1421;-20
2024/02/25 01:53:17;;;;;;;;;;;;;;;;;;2190837;59;2293;-20
2024/02/25 01:55:52;;;;;;;;;;;;;;;;;;2192611;67;1574;-20
2024/02/25 01:58:24;;;;;;;;;;;;;;;;;;2191245;67;1622;-20
2024/02/25 02:00:59;;;;;;;;;;;;;;;;;;2193193;67;1512;-20
2024/02/25 02:03:30;;;;;;;;;;;;;;;;;;2193579;59;1621;-19
2024/02/25 02:06:00;;;;;;;;;;;;;;;;;;2192071;67;1547;-20
2024/02/25 02:08:31;;;;;;;;;;;;;;;;;;2192618;67;1725;-19
2024/02/25 02:11:15;;;;;;;;;;;;;;;;;;2193363;67;1593;-20
2024/02/25 02:13:46;;;;;;;;;;;;;;;;;;2193970;59;2276;-20
2024/02/25 02:16:17;;;;;;;;;;;;;;;;;;2192103;67;1826;-20
2024/02/25 02:18:47;;;;;;;;;;;;;;;;;;2192687;67;1722;-20
2024/02/25 02:21:18;;;;;;;;;;;;;;;;;;2195895;67;1791;-20
2024/02/25 02:23:48;;;;;;;;;;;;;;;;;;2194228;67;1491;-20
2024/02/25 02:26:19;;;;;;;;;;;;;;;;;;2193764;67;1696;-20
2024/02/25 02:28:50;;;;;;;;;;;;;;;;;;2194481;67;1628;-20
2024/02/25 02:31:21;;;;;;;;;;;;;;;;;;2192161;59;2340;-20
2024/02/25 02:33:52;;;;;;;;;;;;;;;;;;2193757;67;1916;-19
2024/02/25 02:36:24;;;;;;;;;;;;;;;;;;2191437;67;1628;-20
2024/02/25 02:38:54;;;;;;;;;;;;;;;;;;2193731;59;3032;-20
2024/02/25 02:41:25;;;;;;;;;;;;;;;;;;2193337;67;1623;-20
2024/02/25 02:43:55;;;;;;;;;;;;;;;;;;2195595;67;1587;-20
2024/02/25 02:46:26;;;;;;;;;;;;;;;;;;2193184;59;1723;-19
2024/02/25 02:48:58;;;;;;;;;;;;;;;;;;2193618;67;1844;-20
2024/02/25 02:51:28;;;;;;;;;;;;;;;;;;2191960;67;1560;-19
2024/02/25 02:53:58;;;;;;;;;;;;;;;;;;2193119;67;1956;-20
2024/02/25 02:56:32;;;;;;;;;;;;;;;;;;2192048;67;1846;-20
2024/02/25 02:59:02;;;;;;;;;;;;;;;;;;2190889;67;1621;-20
2024/02/25 03:01:33;;;;;;;;;;;;;;;;;;2192512;67;1537;-20
2024/02/25 03:04:04;;;;;;;;;;;;;;;;;;2192582;59;1768;-20
2024/02/25 03:06:35;;;;;;;;;;;;;;;;;;2192070;59;2254;-20
2024/02/25 03:09:05;;;;;;;;;;;;;;;;;;2193082;67;1672;-20
2024/02/25 03:11:39;;;;;;;;;;;;;;;;;;2190908;67;1685;-20
2024/02/25 03:14:09;;;;;;;;;;;;;;;;;;2194878;59;1918;-20
2024/02/25 03:16:39;;;;;;;;;;;;;;;;;;2192885;59;1503;-20
2024/02/25 03:19:10;;;;;;;;;;;;;;;;;;2193208;67;1686;-20
2024/02/25 03:21:42;;;;;;;;;;;;;;;;;;2194462;67;1658;-20
2024/02/25 03:24:14;;;;;;;;;;;;;;;;;;2192886;67;1709;-20
2024/02/25 03:26:47;;;;;;;;;;;;;;;;;;2192650;59;2214;-19
2024/02/25 03:29:17;;;;;;;;;;;;;;;;;;2196706;67;1711;-20
2024/02/25 03:31:48;;;;;;;;;;;;;;;;;;2196481;67;2343;-20
2024/02/25 03:34:18;;;;;;;;;;;;;;;;;;2208728;67;1933;-20
2024/02/25 03:36:49;;;;;;;;;;;;;;;;;;2208071;59;2245;-20
2024/02/25 03:39:19;;;;;;;;;;;;;;;;;;2208553;59;2967;-20
2024/02/25 03:41:50;;;;;;;;;;;;;;;;;;2207965;67;1708;-20
2024/02/25 03:44:21;;;;;;;;;;;;;;;;;;2208512;67;1676;-20
2024/02/25 03:46:51;;;;;;;;;;;;;;;;;;2208995;59;1800;-20
2024/02/25 03:49:23;;;;;;;;;;;;;;;;;;2207929;67;1649;-20
2024/02/25 03:51:54;;;;;;;;;;;;;;;;;;2205886;67;1643;-20
2024/02/25 03:54:24;;;;;;;;;;;;;;;;;;2204537;67;1898;-19
2024/02/25 03:56:54;;;;;;;;;;;;;;;;;;2205795;67;1579;-20
2024/02/25 03:59:24;;;;;;;;;;;;;;;;;;2206699;59;1717;-20
2024/02/25 04:01:55;;;;;;;;;;;;;;;;;;2209641;67;1751;-20
2024/02/25 04:04:25;;;;;;;;;;;;;;;;;;2203353;67;1926;-20
2024/02/25 04:06:56;;;;;;;;;;;;;;;;;;2209303;67;1542;-20
2024/02/25 04:09:26;;;;;;;;;;;;;;;;;;2208397;67;2346;-20
2024/02/25 04:11:56;;;;;;;;;;;;;;;;;;2211523;59;1669;-20
2024/02/25 04:14:29;;;;;;;;;;;;;;;;;;2205729;59;1942;-19
2024/02/25 04:17:00;;;;;;;;;;;;;;;;;;2209691;67;1542;-19
2024/02/25 04:19:31;;;;;;;;;;;;;;;;;;2207963;67;1625;-20
2024/02/25 04:22:02;;;;;;;;;;;;;;;;;;2205373;67;1823;-20
2024/02/25 04:24:33;;;;;;;;;;;;;;;;;;2207448;59;1439;-20
2024/02/25 04:27:03;;;;;;;;;;;;;;;;;;2206010;67;1546;-20
2024/02/25 04:29:36;;;;;;;;;;;;;;;;;;2208033;67;1863;-19
2024/02/25 04:32:06;;;;;;;;;;;;;;;;;;2207293;59;1712;-20
2024/02/25 04:34:36;;;;;;;;;;;;;;;;;;2211898;67;1987;-20
2024/02/25 04:37:07;;;;;;;;;;;;;;;;;;2211650;60;1527;-20
2024/02/25 04:39:38;;;;;;;;;;;;;;;;;;2211381;59;2356;-19
2024/02/25 04:42:09;;;;;;;;;;;;;;;;;;2207422;67;1288;-20
2024/02/25 04:44:39;;;;;;;;;;;;;;;;;;2212447;59;2915;-20
2024/02/25 04:47:12;;;;;;;;;;;;;;;;;;2212819;58;1559;-20
2024/02/25 04:49:44;;;;;;;;;;;;;;;;;;2208306;59;3124;-20
2024/02/25 04:52:15;;;;;;;;;;;;;;;;;;2211395;59;1776;-20
2024/02/25 04:54:45;;;;;;;;;;;;;;;;;;2211606;66;1955;-20
2024/02/25 04:57:16;;;;;;;;;;;;;;;;;;2211672;66;1421;-19
2024/02/25 04:59:46;;;;;;;;;;;;;;;;;;2209090;67;1763;-19
2024/02/25 05:02:17;;;;;;;;;;;;;;;;;;2205669;66;1804;-20
2024/02/25 05:04:47;;;;;;;;;;;;;;;;;;2212063;67;1563;-20
2024/02/25 05:07:19;;;;;;;;;;;;;;;;;;2212209;58;1483;-20
2024/02/25 05:09:49;;;;;;;;;;;;;;;;;;2209014;67;1795;-19
2024/02/25 05:12:22;;;;;;;;;;;;;;;;;;2210035;67;1717;-19
2024/02/25 05:14:52;;;;;;;;;;;;;;;;;;2212396;59;1522;-19
2024/02/25 05:17:22;;;;;;;;;;;;;;;;;;2212374;67;1732;-19
2024/02/25 05:19:53;;;;;;;;;;;;;;;;;;2211973;59;1641;-20
2024/02/25 05:22:25;;;;;;;;;;;;;;;;;;2212955;59;1768;-20
2024/02/25 05:24:58;;;;;;;;;;;;;;;;;;2212624;67;1603;-19
2024/02/25 05:27:35;;;;;;;;;;;;;;;;;;2211906;67;1683;-20
2024/02/25 05:30:06;;;;;;;;;;;;;;;;;;2208621;59;2290;-19
2024/02/25 05:32:36;;;;;;;;;;;;;;;;;;2211634;59;1998;-19
2024/02/25 05:35:07;;;;;;;;;;;;;;;;;;2208505;67;1999;-19
2024/02/25 05:37:37;;;;;;;;;;;;;;;;;;2211704;59;1657;-20
2024/02/25 05:40:12;;;;;;;;;;;;;;;;;;2213912;59;3083;-20
2024/02/25 05:42:42;;;;;;;;;;;;;;;;;;2206768;67;1864;-20
2024/02/25 05:45:12;;;;;;;;;;;;;;;;;;2208260;59;1781;-20
2024/02/25 05:47:43;;;;;;;;;;;;;;;;;;2208871;66;1611;-19
2024/02/25 05:50:14;;;;;;;;;;;;;;;;;;2212085;67;1663;-21
2024/02/25 05:53:04;;;;;;;;;;;;;;;;;;2212684;66;1912;-20
2024/02/25 05:55:34;;;;;;;;;;;;;;;;;;2211445;67;1638;-19
2024/02/25 05:58:05;;;;;;;;;;;;;;;;;;2213266;67;1644;-20
2024/02/25 06:00:36;;;;;;;;;;;;;;;;;;2212214;59;1813;-19
2024/02/25 06:03:06;;;;;;;;;;;;;;;;;;2212844;66;1710;-20
2024/02/25 06:05:36;;;;;;;;;;;;;;;;;;2208553;67;1661;-20
2024/02/25 06:08:07;;;;;;;;;;;;;;;;;;2213726;67;1606;-20
2024/02/25 06:10:38;;;;;;;;;;;;;;;;;;2211745;67;1593;-19
2024/02/25 06:13:08;;;;;;;;;;;;;;;;;;2209230;67;1994;-20
2024/02/25 06:15:38;;;;;;;;;;;;;;;;;;2211959;59;1907;-20
2024/02/25 06:18:11;;;;;;;;;;;;;;;;;;2213181;59;1579;-20
2024/02/25 06:20:42;;;;;;;;;;;;;;;;;;2212062;66;1553;-20
2024/02/25 06:23:12;;;;;;;;;;;;;;;;;;2209459;58;1769;-20
2024/02/25 06:25:46;;;;;;;;;;;;;;;;;;2208318;67;1552;-20
2024/02/25 06:28:16;;;;;;;;;;;;;;;;;;2212674;66;1664;-19
2024/02/25 06:30:47;;;;;;;;;;;;;;;;;;2212393;67;1575;-20
2024/02/25 06:33:17;;;;;;;;;;;;;;;;;;2209510;58;2301;-19
2024/02/25 06:35:50;;;;;;;;;;;;;;;;;;2213024;58;1917;-20
2024/02/25 06:38:20;;;;;;;;;;;;;;;;;;2212292;59;1597;-20
2024/02/25 06:40:50;;;;;;;;;;;;;;;;;;2205818;59;2855;-20
2024/02/25 06:43:23;;;;;;;;;;;;;;;;;;2212455;58;1905;-20
2024/02/25 06:45:54;;;;;;;;;;;;;;;;;;2207466;59;1819;-20
2024/02/25 06:48:25;;;;;;;;;;;;;;;;;;2213171;59;1769;-20
2024/02/25 06:50:55;;;;;;;;;;;;;;;;;;2207906;59;2235;-20
2024/02/25 06:53:27;;;;;;;;;;;;;;;;;;2212595;66;1937;-19
2024/02/25 06:55:58;;;;;;;;;;;;;;;;;;2213334;66;1596;-20
2024/02/25 06:58:31;;;;;;;;;;;;;;;;;;2212168;67;1642;-20
2024/02/25 07:01:01;;;;;;;;;;;;;;;;;;2211756;66;1659;-20
2024/02/25 07:03:32;;;;;;;;;;;;;;;;;;2211870;67;1545;-20
2024/02/25 07:06:03;;;;;;;;;;;;;;;;;;2211000;67;2063;-20
2024/02/25 07:08:34;;;;;;;;;;;;;;;;;;2212247;58;1506;-20
2024/02/25 07:11:28;;;;;;;;;;;;;;;;;;2211972;66;1604;-20
2024/02/25 07:13:59;;;;;;;;;;;;;;;;;;2211746;63;1945;-20
2024/02/25 07:16:29;;;;;;;;;;;;;;;;;;2211799;67;1763;-20
2024/02/25 07:19:00;;;;;;;;;;;;;;;;;;2208284;67;1609;-20
2024/02/25 07:21:32;;;;;;;;;;;;;;;;;;2212997;59;1538;-20
2024/02/25 07:24:05;;;;;;;;;;;;;;;;;;2212002;67;1479;-20
2024/02/25 07:26:37;;;;;;;;;;;;;;;;;;2212217;66;1648;-20
2024/02/25 07:29:08;;;;;;;;;;;;;;;;;;2208083;67;1651;-20
2024/02/25 07:31:38;;;;;;;;;;;;;;;;;;2212520;67;1716;-20
2024/02/25 07:34:09;;;;;;;;;;;;;;;;;;2211447;59;2641;-20
2024/02/25 07:36:40;;;;;;;;;;;;;;;;;;2207667;59;2541;-20
2024/02/25 07:39:11;;;;;;;;;;;;;;;;;;2210324;59;2614;-20
2024/02/25 07:41:55;;;;;;;;;;;;;;;;;;;;;
2024/02/25 07:44:32;;;;;;;;;;;;;;;;;;2211791;59;2415;-25
2024/02/25 07:47:04;;;;;;;;;;;;;;;;;;2211662;59;2484;-20
2024/02/25 07:49:36;;;;;;;;;;;;;;;;;;2208396;59;2429;-20
2024/02/25 07:52:09;;;;;;;;;;;;;;;;;;2211805;59;2253;-20
2024/02/25 07:54:39;;;;;;;;;;;;;;;;;;2210955;59;2311;-20
2024/02/25 07:57:11;;;;;;;;;;;;;;;;;;2211160;67;2515;-20
2024/02/25 07:59:42;;;;;;;;;;;;;;;;;;2211344;67;2287;-21
2024/02/25 08:02:12;;;;;;;;;;;;;;;;;;2212237;59;2418;-21
2024/02/25 08:04:43;;;;;;;;;;;;;;;;;;2211957;59;1659;-21
2024/02/25 08:07:16;;;;;;;;;;;;;;;;;;2212484;66;1471;-20
2024/02/25 08:09:47;;;;;;;;;;;;;;;;;;2208330;59;1550;-20
2024/02/25 08:12:17;;;;;;;;;;;;;;;;;;2209168;67;1702;-20
2024/02/25 08:14:54;;;;;;;;;;;;;;;;;;2208470;59;1937;-20
2024/02/25 08:17:24;;;;;;;;;;;;;;;;;;2212052;67;2226;-20
2024/02/25 08:19:56;;;;;;;;;;;;;;;;;;2210853;59;2882;-20
2024/02/25 08:22:26;;;;;;;;;;;;;;;;;;2208065;59;3703;-20
2024/02/25 08:24:56;;;;;;;;;;;;;;;;;;2208504;59;2551;-20
2024/02/25 08:27:32;;;;;;;;;;;;;;;;;;2206301;67;2641;-20
2024/02/25 08:30:03;;;;;;;;;;;;;;;;;;2210574;59;2688;-20
2024/02/25 08:32:33;;;;;;;;;;;;;;;;;;2208264;59;3004;-20
2024/02/25 08:35:04;;;;;;;;;;;;;;;;;;2209756;59;2760;-20
2024/02/25 08:37:35;;;;;;;;;;;;;;;;;;2209092;59;2820;-21
2024/02/25 08:40:06;;;;;;;;;;;;;;;;;;2211848;59;2301;-21
2024/02/25 08:42:39;;;;;;;;;;;;;;;;;;2211980;59;2420;-21
2024/02/25 08:45:10;;;;;;;;;;;;;;;;;;2208646;59;2325;-20
2024/02/25 08:47:41;;;;;;;;;;;;;;;;;;2208124;59;2741;-21
2024/02/25 08:50:12;;;;;;;;;;;;;;;;;;2211833;67;1530;-21
2024/02/25 08:52:43;;;;;;;;;;;;;;;;;;2212431;67;1945;-21
2024/02/25 08:55:13;;;;;;;;;;;;;;;;;;2211508;67;1675;-21
2024/02/25 08:57:46;;;;;;;;;;;;;;;;;;2211881;67;1930;-21
2024/02/25 09:00:17;;;;;;;;;;;;;;;;;;2211209;59;3843;-21
2024/02/25 09:02:47;;;;;;;;;;;;;;;;;;2211622;59;3905;-21
2024/02/25 09:05:18;;;;;;;;;;;;;;;;;;2211958;59;3436;-21
2024/02/25 09:07:49;;;;;;;;;;;;;;;;;;2211705;66;1573;-20
2024/02/25 09:10:20;;;;;;;;;;;;;;;;;;2212496;59;1737;-20
2024/02/25 09:12:50;;;;;;;;;;;;;;;;;;2209875;66;1958;-20
2024/02/25 09:15:21;;;;;;;;;;;;;;;;;;2213509;59;1506;-20
2024/02/25 09:17:54;;;;;;;;;;;;;;;;;;2210807;59;1938;-20
2024/02/25 09:20:29;;;;;;;;;;;;;;;;;;2212707;66;2308;-20
2024/02/25 09:23:04;;;;;;;;;;;;;;;;;;2212219;66;1667;-20
2024/02/25 09:25:36;;;;;;;;;;;;;;;;;;2211425;67;1616;-20
2024/02/25 09:28:15;;;;;;;;;;;;;;;;;;2208538;59;1455;-21
2024/02/25 09:30:45;;;;;;;;;;;;;;;;;;2212185;67;1464;-20
2024/02/25 09:33:19;;;;;;;;;;;;;;;;;;2207853;59;1924;-21
2024/02/25 09:35:50;;;;;;;;;;;;;;;;;;2211195;67;1494;-21
2024/02/25 09:38:22;;;;;;;;;;;;;;;;;;2212213;67;1498;-21
2024/02/25 09:41:13;;;;;;;;;;;;;;;;;;2211346;59;1941;-21
2024/02/25 09:43:43;;;;;;;;;;;;;;;;;;2212682;59;2576;-20
2024/02/25 09:46:15;;;;;;;;;;;;;;;;;;2213186;67;1477;-21
2024/02/25 09:48:50;;;;;;;;;;;;;;;;;;2211767;67;1844;-21
2024/02/25 09:51:23;;;;;;;;;;;;;;;;;;2213244;66;2137;-20
2024/02/25 09:53:54;;;;;;;;;;;;;;;;;;2211913;67;1921;-20
2024/02/25 09:56:25;;;;;;;;;;;;;;;;;;2211172;67;1572;-21
2024/02/25 09:58:55;;;;;;;;;;;;;;;;;;2210272;67;1671;-20
2024/02/25 10:01:27;;;;;;;;;;;;;;;;;;2213304;67;2329;-20
2024/02/25 10:03:57;;;;;;;;;;;;;;;;;;2208100;67;2012;-21
2024/02/25 10:06:35;;;;;;;;;;;;;;;;;;2209084;67;2108;-20
2024/02/25 10:09:10;;;;;;;;;;;;;;;;;;2211753;67;2779;-21
2024/02/25 10:11:44;;;;;;;;;;;;;;;;;;2212345;67;1480;-20
2024/02/25 10:14:15;;;;;;;;;;;;;;;;;;2211062;59;1935;-20
2024/02/25 10:16:58;;;;;;;;;;;;;;;;;;2212089;66;1452;-20
2024/02/25 10:19:30;;;;;;;;;;;;;;;;;;2205780;59;1920;-20
2024/02/25 10:22:05;;;;;;;;;;;;;;;;;;2211659;67;1367;-21
2024/02/25 10:24:35;;;;;;;;;;;;;;;;;;2213228;67;1500;-21
2024/02/25 10:27:07;;;;;;;;;;;;;;;;;;2206774;67;1431;-21
2024/02/25 10:29:55;;;;;;;;;;;;;;;;;;2207786;59;2149;-20
2024/02/25 10:32:40;;;;;;;;;;;;;;;;;;2206883;59;2515;-20
2024/02/25 10:35:10;;;;;;;;;;;;;;;;;;2209592;59;2334;-21
2024/02/25 10:37:41;;;;;;;;;;;;;;;;;;2209664;67;1310;-21
2024/02/25 10:40:12;;;;;;;;;;;;;;;;;;2207333;67;1934;-21
2024/02/25 10:42:47;;;;;;;;;;;;;;;;;;2210229;67;1925;-21
2024/02/25 10:45:20;;;;;;;;;;;;;;;;;;2209886;59;1711;-21
2024/02/25 10:47:55;;;;;;;;;;;;;;;;;;2212016;67;1505;-21
2024/02/25 10:50:27;;;;;;;;;;;;;;;;;;2211619;67;1627;-21
2024/02/25 10:52:57;;;;;;;;;;;;;;;;;;2211621;67;2272;-21
2024/02/25 10:55:29;;;;;;;;;;;;;;;;;;2213193;58;2554;-21
2024/02/25 10:58:01;;;;;;;;;;;;;;;;;;2211771;58;1511;-21
2024/02/25 11:00:31;;;;;;;;;;;;;;;;;;2208061;67;1735;-21
2024/02/25 11:03:03;;;;;;;;;;;;;;;;;;2211308;59;1821;-21
2024/02/25 11:05:35;;;;;;;;;;;;;;;;;;2208427;67;1607;-21
2024/02/25 11:08:15;;;;;;;;;;;;;;;;;;2211272;59;1717;-21
2024/02/25 11:10:45;;;;;;;;;;;;;;;;;;2213036;58;1571;-21
2024/02/25 11:13:21;;;;;;;;;;;;;;;;;;2210489;59;2000;-21
2024/02/25 11:16:00;;;;;;;;;;;;;;;;;;2211249;67;1710;-21
2024/02/25 11:18:30;;;;;;;;;;;;;;;;;;2209032;67;1752;-21
2024/02/25 11:21:07;;;;;;;;;;;;;;;;;;2207862;67;2575;-21
2024/02/25 11:23:47;;;;;;;;;;;;;;;;;;2212118;67;1490;-20
2024/02/25 11:26:32;;;;;;;;;;;;;;;;;;2211443;66;2674;-21
2024/02/25 11:29:21;;;;;;;;;;;;;;;;;;2209074;59;1768;-20
2024/02/25 11:31:59;;;;;;;;;;;;;;;;;;2211744;67;1428;-21
2024/02/25 11:34:32;;;;;;;;;;;;;;;;;;2212368;59;1951;-21
2024/02/25 11:37:12;;;;;;;;;;;;;;;;;;2211426;66;1512;-21
2024/02/25 11:39:44;;;;;;;;;;;;;;;;;;2212075;59;2826;-21
2024/02/25 11:42:14;;;;;;;;;;;;;;;;;;2211122;67;1615;-21
2024/02/25 11:44:47;;;;;;;;;;;;;;;;;;2209160;59;1700;-21
2024/02/25 11:47:18;;;;;;;;;;;;;;;;;;2211195;59;1619;-21
2024/02/25 11:49:48;;;;;;;;;;;;;;;;;;2211773;66;1677;-21
2024/02/25 11:52:19;;;;;;;;;;;;;;;;;;2209240;67;1380;-21
2024/02/25 11:54:50;;;;;;;;;;;;;;;;;;2208654;67;2537;-21
2024/02/25 11:57:21;;;;;;;;;;;;;;;;;;2211118;67;1521;-21
2024/02/25 11:59:51;;;;;;;;;;;;;;;;;;2208677;67;1580;-21
2024/02/25 12:02:22;;;;;;;;;;;;;;;;;;2207748;59;2353;-21
2024/02/25 12:04:56;;;;;;;;;;;;;;;;;;2211908;67;1824;-21
2024/02/25 12:07:27;;;;;;;;;;;;;;;;;;2208109;67;1569;-21
2024/02/25 12:09:59;;;;;;;;;;;;;;;;;;2208665;67;1604;-21
2024/02/25 12:12:30;;;;;;;;;;;;;;;;;;2207791;67;1896;-21
2024/02/25 12:15:01;;;;;;;;;;;;;;;;;;2210580;59;1945;-21
2024/02/25 12:17:33;;;;;;;;;;;;;;;;;;2211810;67;1601;-21
2024/02/25 12:20:05;;;;;;;;;;;;;;;;;;2211625;67;2034;-21
2024/02/25 12:22:38;;;;;;;;;;;;;;;;;;2208529;67;1592;-21
2024/02/25 12:25:19;;;;;;;;;;;;;;;;;;2209607;66;2373;-21
2024/02/25 12:28:05;;;;;;;;;;;;;;;;;;2207764;67;1605;-21
2024/02/25 12:30:35;;;;;;;;;;;;;;;;;;2210968;58;1346;-21
2024/02/25 12:33:09;;;;;;;;;;;;;;;;;;2211148;67;1943;-21
2024/02/25 12:35:40;;;;;;;;;;;;;;;;;;2211247;59;1679;-21
2024/02/25 12:38:13;;;;;;;;;;;;;;;;;;2210847;67;1767;-21
2024/02/25 12:40:47;;;;;;;;;;;;;;;;;;2212001;59;1815;-21
2024/02/25 12:43:18;;;;;;;;;;;;;;;;;;2210676;67;1962;-21
2024/02/25 12:45:50;;;;;;;;;;;;;;;;;;2205215;59;1692;-21
2024/02/25 12:48:20;;;;;;;;;;;;;;;;;;2206212;67;1677;-21
2024/02/25 12:50:51;;;;;;;;;;;;;;;;;;2208081;67;1648;-21
2024/02/25 12:53:22;;;;;;;;;;;;;;;;;;2211050;67;1995;-21
2024/02/25 12:55:53;;;;;;;;;;;;;;;;;;2207624;59;1944;-21
2024/02/25 12:58:24;;;;;;;;;;;;;;;;;;2210317;67;1621;-21
2024/02/25 13:00:55;;;;;;;;;;;;;;;;;;2207283;67;1686;-21
2024/02/25 13:03:25;;;;;;;;;;;;;;;;;;2210515;59;1545;-21
2024/02/25 13:05:56;;;;;;;;;;;;;;;;;;2211783;67;1296;-21
2024/02/25 13:08:26;;;;;;;;;;;;;;;;;;2210848;67;2287;-21
2024/02/25 13:10:56;;;;;;;;;;;;;;;;;;2212019;67;1658;-21
2024/02/25 13:13:28;;;;;;;;;;;;;;;;;;2209893;59;1943;-21
2024/02/25 13:16:13;;;;;;;;;;;;;;;;;;2210526;67;1637;-21
2024/02/25 13:18:43;;;;;;;;;;;;;;;;;;2209340;67;1466;-21
2024/02/25 13:21:18;;;;;;;;;;;;;;;;;;2207630;67;1747;-21
2024/02/25 13:23:49;;;;;;;;;;;;;;;;;;2211925;66;1566;-21
2024/02/25 13:26:26;;;;;;;;;;;;;;;;;;2212020;67;1841;-21
2024/02/25 13:28:56;;;;;;;;;;;;;;;;;;2212640;67;1666;-21
2024/02/25 13:31:27;;;;;;;;;;;;;;;;;;2208535;67;1663;-21
2024/02/25 13:33:58;;;;;;;;;;;;;;;;;;2210959;59;1970;-21
2024/02/25 13:36:32;;;;;;;;;;;;;;;;;;2208006;67;2129;-21
2024/02/25 13:39:09;;;;;;;;;;;;;;;;;;2209664;59;2078;-21
2024/02/25 13:41:41;;;;;;;;;;;;;;;;;;2208662;59;1586;-21
2024/02/25 13:44:13;;;;;;;;;;;;;;;;;;2208826;59;1734;-21
2024/02/25 13:46:44;;;;;;;;;;;;;;;;;;2211648;59;1621;-21
2024/02/25 13:49:14;;;;;;;;;;;;;;;;;;2210363;67;1586;-21
2024/02/25 13:51:45;;;;;;;;;;;;;;;;;;2207883;67;1668;-20
2024/02/25 13:54:16;;;;;;;;;;;;;;;;;;2211583;59;1933;-20
2024/02/25 13:56:47;;;;;;;;;;;;;;;;;;2211190;67;1607;-21
2024/02/25 13:59:18;;;;;;;;;;;;;;;;;;2210992;67;1535;-20
2024/02/25 14:01:49;;;;;;;;;;;;;;;;;;2210863;67;1481;-21
2024/02/25 14:04:19;;;;;;;;;;;;;;;;;;2212211;59;1790;-20
2024/02/25 14:06:53;;;;;;;;;;;;;;;;;;2208012;67;1451;-20
2024/02/25 14:09:23;;;;;;;;;;;;;;;;;;2205586;59;1963;-21
2024/02/25 14:11:54;;;;;;;;;;;;;;;;;;2210903;67;1673;-20
2024/02/25 14:14:24;;;;;;;;;;;;;;;;;;2208887;59;2004;-20
2024/02/25 14:16:56;;;;;;;;;;;;;;;;;;2211837;67;1468;-20
2024/02/25 14:19:27;;;;;;;;;;;;;;;;;;2212080;66;1505;-21
2024/02/25 14:21:57;;;;;;;;;;;;;;;;;;2212968;67;1579;-20
2024/02/25 14:24:28;;;;;;;;;;;;;;;;;;2209051;59;1606;-20
2024/02/25 14:26:58;;;;;;;;;;;;;;;;;;2211834;67;1547;-20
2024/02/25 14:29:29;;;;;;;;;;;;;;;;;;2211446;67;1576;-20
2024/02/25 14:32:00;;;;;;;;;;;;;;;;;;2211349;67;1494;-20
2024/02/25 14:34:31;;;;;;;;;;;;;;;;;;2211644;59;1915;-20
2024/02/25 14:37:02;;;;;;;;;;;;;;;;;;2208625;67;1740;-20
2024/02/25 14:39:33;;;;;;;;;;;;;;;;;;2208665;59;3228;-20
2024/02/25 14:42:05;;;;;;;;;;;;;;;;;;2211913;59;1788;-20
2024/02/25 14:44:35;;;;;;;;;;;;;;;;;;2211794;59;2043;-20
2024/02/25 14:47:06;;;;;;;;;;;;;;;;;;2210545;59;1830;-20
2024/02/25 14:49:36;;;;;;;;;;;;;;;;;;2212001;67;1701;-21
2024/02/25 14:52:06;;;;;;;;;;;;;;;;;;2208249;66;1535;-21
2024/02/25 14:54:36;;;;;;;;;;;;;;;;;;2208552;67;2007;-20
2024/02/25 14:57:11;;;;;;;;;;;;;;;;;;2207714;67;1686;-20
2024/02/25 14:59:43;;;;;;;;;;;;;;;;;;2211482;67;2379;-21
2024/02/25 15:02:15;;;;;;;;;;;;;;;;;;2211034;66;1397;-20
2024/02/25 15:04:47;;;;;;;;;;;;;;;;;;2211185;67;1707;-20
2024/02/25 15:07:18;;;;;;;;;;;;;;;;;;2206158;59;2348;-21
2024/02/25 15:09:48;;;;;;;;;;;;;;;;;;2208260;67;1873;-20
2024/02/25 15:12:19;;;;;;;;;;;;;;;;;;2209870;59;2378;-20
2024/02/25 15:14:55;;;;;;;;;;;;;;;;;;2205956;59;2343;-20
2024/02/25 15:17:26;;;;;;;;;;;;;;;;;;2210077;67;3251;-20
2024/02/25 15:19:59;;;;;;;;;;;;;;;;;;2210683;59;2879;-20
2024/02/25 15:22:30;;;;;;;;;;;;;;;;;;2208006;66;1409;-20
2024/02/25 15:25:00;;;;;;;;;;;;;;;;;;2210702;59;1740;-21
2024/02/25 15:27:31;;;;;;;;;;;;;;;;;;2208236;67;1688;-20
2024/02/25 15:30:01;;;;;;;;;;;;;;;;;;2213493;66;1635;-20
2024/02/25 15:32:32;;;;;;;;;;;;;;;;;;2211898;67;1842;-20
2024/02/25 15:35:03;;;;;;;;;;;;;;;;;;2211995;67;2000;-20
2024/02/25 15:37:33;;;;;;;;;;;;;;;;;;2208475;59;1886;-20
2024/02/25 15:40:05;;;;;;;;;;;;;;;;;;2208762;59;1885;-20
2024/02/25 15:42:42;;;;;;;;;;;;;;;;;;2208349;67;2034;-20
2024/02/25 15:45:14;;;;;;;;;;;;;;;;;;2212195;59;1680;-20
2024/02/25 15:47:45;;;;;;;;;;;;;;;;;;2208538;59;2652;-21
2024/02/25 15:50:19;;;;;;;;;;;;;;;;;;2212496;67;1460;-20
2024/02/25 15:52:53;;;;;;;;;;;;;;;;;;2212640;67;1936;-20
2024/02/25 15:55:23;;;;;;;;;;;;;;;;;;2210941;66;1899;-20
2024/02/25 15:58:00;;;;;;;;;;;;;;;;;;2208928;67;1527;-20
2024/02/25 16:00:35;;;;;;;;;;;;;;;;;;2211862;67;1728;-20
2024/02/25 16:03:08;;;;;;;;;;;;;;;;;;2212986;67;1738;-20
2024/02/25 16:05:40;;;;;;;;;;;;;;;;;;2211602;66;1682;-20
2024/02/25 16:08:13;;;;;;;;;;;;;;;;;;2210956;59;2086;-20
2024/02/25 16:10:53;;;;;;;;;;;;;;;;;;2208842;59;1805;-20
2024/02/25 16:13:27;;;;;;;;;;;;;;;;;;2211900;59;1937;-20
2024/02/25 16:16:02;;;;;;;;;;;;;;;;;;2207470;67;2468;-20
2024/02/25 16:18:36;;;;;;;;;;;;;;;;;;2211898;67;1392;-20
2024/02/25 16:21:06;;;;;;;;;;;;;;;;;;2211850;67;2491;-20
2024/02/25 16:23:43;;;;;;;;;;;;;;;;;;2211724;67;1506;-20
2024/02/25 16:26:16;;;;;;;;;;;;;;;;;;2211370;66;1628;-20
2024/02/25 16:28:46;;;;;;;;;;;;;;;;;;2212483;67;2107;-20
2024/02/25 16:31:20;;;;;;;;;;;;;;;;;;2207632;67;2489;-20
2024/02/25 16:33:52;;;;;;;;;;;;;;;;;;2211255;67;1992;-20
2024/02/25 16:36:24;;;;;;;;;;;;;;;;;;2212631;59;1446;-20
2024/02/25 16:38:56;;;;;;;;;;;;;;;;;;2212471;59;1784;-20
2024/02/25 16:41:39;;;;;;;;;;;;;;;;;;2211092;59;2102;-20
2024/02/25 16:44:09;;;;;;;;;;;;;;;;;;2211647;59;1931;-20
2024/02/25 16:46:41;;;;;;;;;;;;;;;;;;2212305;59;2111;-20
2024/02/25 16:49:12;;;;;;;;;;;;;;;;;;2210677;66;1641;-20
2024/02/25 16:51:45;;;;;;;;;;;;;;;;;;2211263;67;1518;-20
2024/02/25 16:54:16;;;;;;;;;;;;;;;;;;2211051;67;2307;-20
2024/02/25 16:56:49;;;;;;;;;;;;;;;;;;2211798;67;1529;-20
2024/02/25 16:59:21;;;;;;;;;;;;;;;;;;2212719;66;1561;-20
2024/02/25 17:01:51;;;;;;;;;;;;;;;;;;2212087;59;1991;-20
2024/02/25 17:04:21;;;;;;;;;;;;;;;;;;2212521;67;1599;-20
2024/02/25 17:06:54;;;;;;;;;;;;;;;;;;2212580;67;1690;-20
2024/02/25 17:09:25;;;;;;;;;;;;;;;;;;2209657;67;1840;-20
2024/02/25 17:11:55;;;;;;;;;;;;;;;;;;2211219;58;2049;-20
2024/02/25 17:14:26;;;;;;;;;;;;;;;;;;2214034;58;2179;-17
2024/02/25 17:16:58;;;;;;;;;;;;;;;;;;2213598;58;1392;-17
2024/02/25 17:19:28;;;;;;;;;;;;;;;;;;2210580;59;1384;-18
2024/02/25 17:22:00;;;;;;;;;;;;;;;;;;2213252;59;1496;-17
2024/02/25 17:24:31;;;;;;;;;;;;;;;;;;2212223;58;1895;-18
2024/02/25 17:27:01;;;;;;;;;;;;;;;;;;2213368;67;1466;-17
2024/02/25 17:29:33;;;;;;;;;;;;;;;;;;2209955;59;1877;-17
2024/02/25 17:32:03;;;;;;;;;;;;;;;;;;2209323;59;1226;-17
2024/02/25 17:34:34;;;;;;;;;;;;;;;;;;2207205;67;1915;-17
2024/02/25 17:37:06;;;;;;;;;;;;;;;;;;2212348;67;1255;-17